createdAt,value
2022-10-06T06:37:23.306Z,3.43
2022-10-06T06:39:51.803Z,3.40
2022-10-06T06:42:20.208Z,2.70
2022-10-06T06:44:49.124Z,3.67
2022-10-06T06:47:19.940Z,4.00
2022-10-06T06:49:50.148Z,3.77
2022-10-06T06:52:20.667Z,3.30
2022-10-06T06:54:50.752Z,3.83
2022-10-06T06:57:19.829Z,3.37
2022-10-06T06:59:48.137Z,3.50
2022-10-06T07:02:16.449Z,2.77
2022-10-06T07:04:44.902Z,3.00
2022-10-06T07:07:13.107Z,3.50
2022-10-06T07:09:41.442Z,3.57
2022-10-06T07:12:12.055Z,3.20
2022-10-06T07:15:00.593Z,2.97
2022-10-06T07:17:46.148Z,3.87
2022-10-06T07:20:31.569Z,3.13
2022-10-06T07:23:17.474Z,3.40
2022-10-06T07:25:45.692Z,3.13
2022-10-06T07:28:17.337Z,3.47
2022-10-06T07:30:45.934Z,3.23
2022-10-06T07:33:14.850Z,3.10
2022-10-06T07:35:43.226Z,2.97
2022-10-06T07:38:11.438Z,2.73
2022-10-06T07:40:50.693Z,2.83
2022-10-06T07:43:29.482Z,3.40
2022-10-06T07:46:05.227Z,2.43
2022-10-06T07:48:33.435Z,3.10
2022-10-06T07:51:01.973Z,2.67
2022-10-06T07:53:30.362Z,2.60
2022-10-06T07:56:06.972Z,2.77
2022-10-06T07:58:38.988Z,2.97
2022-10-06T08:01:09.085Z,2.60
2022-10-06T08:03:38.904Z,2.40
2022-10-06T08:06:09.701Z,2.37
2022-10-06T08:08:38.048Z,2.70
2022-10-06T08:11:09.250Z,2.43
2022-10-06T08:13:40.681Z,2.10
2022-10-06T08:16:10.777Z,2.17
2022-10-06T08:18:46.587Z,2.20
2022-10-06T08:21:17.221Z,2.50
2022-10-06T08:23:46.255Z,2.10
2022-10-06T08:26:15.978Z,2.37
2022-10-06T08:28:48.336Z,2.30
2022-10-06T08:31:17.770Z,1.80
2022-10-06T08:33:47.248Z,2.40
2022-10-06T08:36:19.387Z,2.27
2022-10-06T08:38:50.418Z,2.60
2022-10-06T08:41:24.049Z,3.70
2022-10-06T08:44:00.839Z,2.03
2022-10-06T08:46:34.166Z,2.30
2022-10-06T08:49:03.055Z,2.00
2022-10-06T08:51:47.294Z,2.00
2022-10-06T08:54:29.954Z,1.93
2022-10-06T08:57:05.371Z,2.03
2022-10-06T08:59:36.617Z,2.17
2022-10-06T09:02:06.939Z,2.30
2022-10-06T09:04:35.915Z,1.90
2022-10-06T09:07:11.345Z,2.40
2022-10-06T09:10:01.803Z,2.40
2022-10-06T09:12:36.853Z,1.83
2022-10-06T09:15:21.516Z,1.80
2022-10-06T09:17:57.251Z,2.20
2022-10-06T09:20:35.930Z,2.10
2022-10-06T09:23:07.553Z,1.90
2022-10-06T09:25:36.220Z,1.83
2022-10-06T09:28:05.960Z,2.60
2022-10-06T09:30:36.153Z,1.80
2022-10-06T09:33:09.451Z,1.70
2022-10-06T09:36:09.187Z,1.83
2022-10-06T09:38:54.178Z,1.60
2022-10-06T09:41:33.919Z,1.50
2022-10-06T09:44:07.365Z,1.70
2022-10-06T09:46:39.859Z,1.60
2022-10-06T09:49:17.652Z,1.70
2022-10-06T09:52:01.764Z,1.57
2022-10-06T09:54:30.552Z,1.20
2022-10-06T09:57:00.436Z,1.40
2022-10-06T09:59:39.129Z,1.60
2022-10-06T10:02:27.160Z,1.63
2022-10-06T10:04:57.061Z,1.57
2022-10-06T10:07:27.232Z,1.93
2022-10-06T10:10:11.589Z,1.50
2022-10-06T10:12:50.945Z,1.47
2022-10-06T10:15:27.549Z,1.60
2022-10-06T10:17:59.367Z,1.20
2022-10-06T10:20:34.546Z,1.20
2022-10-06T10:23:19.373Z,1.17
2022-10-06T10:26:04.567Z,1.20
2022-10-06T10:29:07.225Z,1.30
2022-10-06T10:31:48.342Z,1.30
2022-10-06T10:34:31.373Z,1.27
2022-10-06T10:37:05.940Z,1.27
2022-10-06T10:39:39.033Z,1.27
2022-10-06T10:42:16.101Z,1.42
2022-10-06T10:44:51.973Z,1.17
2022-10-06T10:47:27.593Z,1.23
2022-10-06T10:50:05.897Z,1.20
2022-10-06T10:52:41.556Z,1.27
2022-10-06T10:55:21.807Z,1.13
2022-10-06T10:57:52.143Z,0.98
2022-10-06T11:00:25.362Z,1.13
2022-10-06T11:02:56.652Z,1.50
2022-10-06T11:05:37.992Z,1.00
2022-10-06T11:08:12.849Z,1.48
2022-10-06T11:10:49.053Z,1.35
2022-10-06T11:13:26.484Z,1.10
2022-10-06T11:16:07.916Z,1.73
2022-10-06T11:18:49.124Z,1.20
2022-10-06T11:21:23.348Z,1.48
2022-10-06T11:23:56.822Z,1.40
2022-10-06T11:26:42.194Z,1.52
2022-10-06T11:29:24.882Z,1.50
2022-10-06T11:32:01.494Z,1.80
2022-10-06T11:34:30.040Z,1.90
2022-10-06T11:37:08.323Z,1.65
2022-10-06T11:39:47.347Z,1.45
2022-10-06T11:42:26.046Z,1.90
2022-10-06T11:45:01.481Z,2.00
2022-10-06T11:47:36.230Z,1.77
2022-10-06T11:50:34.403Z,1.92
2022-10-06T11:53:04.602Z,1.63
2022-10-06T11:55:33.527Z,2.40
2022-10-06T11:58:40.787Z,1.98
2022-10-06T12:01:06.315Z,1.90
2022-10-06T12:04:06.751Z,2.05
2022-10-06T12:06:55.588Z,1.83
2022-10-06T12:09:34.474Z,2.10
2022-10-06T12:12:23.713Z,2.10
2022-10-06T12:17:52.258Z,1.52
2022-10-06T12:20:26.256Z,1.90
2022-10-06T12:22:59.405Z,1.88
2022-10-06T12:25:36.133Z,1.73
2022-10-06T12:28:15.543Z,1.98
2022-10-06T12:31:02.544Z,1.65
2022-10-06T12:33:39.268Z,1.85
2022-10-06T12:36:18.373Z,2.40
2022-10-06T12:39:05.521Z,2.33
2022-10-06T12:42:02.831Z,2.05
2022-10-06T12:44:34.862Z,1.98
2022-10-06T12:47:07.376Z,2.00
2022-10-06T12:49:48.106Z,2.15
2022-10-06T12:52:38.985Z,1.75
2022-10-06T12:55:28.928Z,1.80
2022-10-06T12:57:58.660Z,1.92
2022-10-06T13:00:41.151Z,1.90
2022-10-06T13:03:18.737Z,2.10
2022-10-06T13:05:52.885Z,1.80
2022-10-06T13:08:25.594Z,1.83
2022-10-06T13:11:12.836Z,1.80
2022-10-06T13:13:50.791Z,1.77
2022-10-06T13:16:22.475Z,1.60
2022-10-06T13:18:55.013Z,2.00
2022-10-06T13:21:24.040Z,1.85
2022-10-06T13:23:52.675Z,1.80
2022-10-06T13:26:23.560Z,2.05
2022-10-06T13:28:55.495Z,2.03
2022-10-06T13:31:27.370Z,2.03
2022-10-06T13:33:59.820Z,1.98
2022-10-06T13:36:30.957Z,2.20
2022-10-06T13:38:59.500Z,1.98
2022-10-06T13:41:31.575Z,1.88
2022-10-06T13:44:07.924Z,1.92
2022-10-06T13:46:42.350Z,1.77
2022-10-06T13:49:19.980Z,2.00
2022-10-06T13:51:50.707Z,1.73
2022-10-06T13:54:26.165Z,2.10
2022-10-06T13:56:54.435Z,2.58
2022-10-06T13:59:34.100Z,1.88
2022-10-06T14:02:16.626Z,1.98
2022-10-06T14:04:45.088Z,1.92
2022-10-06T14:07:16.304Z,2.00
2022-10-06T14:09:45.011Z,2.58
2022-10-06T14:12:16.733Z,2.15
2022-10-06T14:14:50.599Z,2.13
2022-10-06T14:17:24.362Z,2.35
2022-10-06T14:19:53.243Z,2.33
2022-10-06T14:22:34.526Z,1.95
2022-10-06T14:25:03.416Z,2.10
2022-10-06T14:27:31.826Z,2.15
2022-10-06T14:30:01.808Z,2.25
2022-10-06T14:32:30.456Z,2.60
2022-10-06T14:34:58.974Z,2.42
2022-10-06T14:37:27.715Z,2.10
2022-10-06T14:39:56.583Z,2.13
2022-10-06T14:42:25.064Z,2.15
2022-10-06T14:44:53.306Z,2.75
2022-10-06T14:47:23.299Z,2.15
2022-10-06T14:49:53.112Z,2.65
2022-10-06T14:52:22.463Z,2.30
2022-10-06T14:54:50.886Z,2.75
2022-10-06T14:57:20.105Z,2.28
2022-10-06T14:59:48.429Z,2.20
2022-10-06T15:02:20.231Z,2.22
2022-10-06T15:04:50.119Z,2.55
2022-10-06T15:07:35.494Z,1.92
2022-10-06T15:10:05.870Z,2.75
2022-10-06T15:12:34.234Z,2.55
2022-10-06T15:15:02.628Z,2.47
2022-10-06T15:17:30.789Z,2.30
2022-10-06T15:20:00.749Z,2.53
2022-10-06T15:22:29.359Z,2.47
2022-10-06T15:24:59.437Z,2.23
2022-10-06T15:27:44.827Z,2.03
2022-10-06T15:30:13.936Z,1.98
2022-10-06T15:32:42.213Z,2.67
2022-10-06T15:35:12.390Z,2.50
2022-10-06T15:37:41.904Z,2.20
2022-10-06T15:40:11.195Z,2.90
2022-10-06T15:42:39.788Z,3.00
2022-10-06T15:45:08.951Z,2.93
2022-10-06T15:47:37.207Z,2.00
2022-10-06T15:50:05.920Z,2.40
2022-10-06T15:52:35.793Z,2.30
2022-10-06T15:55:04.099Z,2.80
2022-10-06T15:57:32.499Z,2.10
2022-10-06T16:00:00.705Z,2.40
2022-10-06T16:02:35.711Z,2.40
2022-10-06T16:05:33.220Z,2.40
2022-10-06T16:08:04.940Z,2.20
2022-10-06T16:10:33.089Z,6.80
2022-10-06T16:13:01.376Z,2.40
2022-10-06T16:15:29.742Z,2.70
2022-10-06T16:17:58.074Z,2.30
2022-10-06T16:20:26.460Z,2.53
2022-10-06T16:22:54.821Z,4.50
2022-10-06T16:25:24.487Z,2.30
2022-10-06T16:27:52.876Z,2.40
2022-10-06T16:30:21.252Z,2.20
2022-10-06T16:32:49.494Z,2.80
